De Forest, Wisconsin
Current Conditions -  °F | °C
As of 4:53 AM on Thursday 23 Oct 2014 (Local Time) from KMSN Reporting Station
Clear Clear  
Wind Chill: 34°   Ceiling: Unl
Heat Index: 39°   Visibility: 10mi
Dew Point: 34°   Wind: 7mph
Humidity: 82%   Direction: 160°SSE
Pressure: 30.2"   Gusts: NA
Location:  43.25°N, 89.34°W
Report Text: KMSN 230953Z AUTO 16006KT 10SM CLR 04/01 A3020 RMK AO2 SLP231 T00390011
Loading
Personal Weather Stations






























Interactive Weather Map
Tropical Storm Tracking
New forecast layout! Learn more

10-Day Weather Forecast

Advertisements
Track Severe Weather on mobile